General Abelardo L. Rodríguez International Airport
MMTJ : now visible

Airfield :











YOU CAN JOIN US ON...

 
LOGIN :

Register | Disclaimer

   EN    FR    IT 

 









Legend :    VFR   Marginal VFR   IFR   Intensive IFR   Very Intensive IFR
Visi :
Ceiling :
>= 8 km
>= 3000ft
5 to 8 km
1000 to 3000 ft
1500m to 5 km
500 to 1000 ft
800 to 1500m
200 to 500 ft
< 800m
< 200 ft
Symbols :   Thunderstorms  Fog  Heavy snow  Heavy precipitations  Wind > 20 kt






- Airport Elevation : 489 ft
- IATA code : TIJ


MMTJ - General Abelardo L. Rodríguez International

CURRENT METAR :
  • 191649Z 00000KT 3SM HZ BKN010 14/10 A3011 RMK 8/600

EXPIRED METARs :
  • 191630Z 00000KT 2SM BR BKN010 13/10 A3011 RMK 8/600
  • 191549Z 00000KT 2SM BR OVC006 12/09 A3010 RMK 8/6//
  • 191441Z 00000KT 2SM BR OVC006 11/10 A3008 RMK SLP189 52010 923 8/6//

TAF COR TAF MMTJ
Valid from the 19 at 14:00 until the 20 at 18:00 UTC


191646Z 1914/2018 00000KT 1SM BR OVC005 TX29/1920Z TN11/2012Z
TEMPO 1914/1915 1/4SM FG
FM191700 28010KT 2SM BR OVC010
FM192000 30010KT 4SM HZ BKN015
BECMG 2002/2003 00000KT
FM201500 26010KT 5SM HZ SCT020



MET'MAP, your aeronautical weather chart ! - Copyright ORBIFLY December 2007 - Disclaimer

ORBIFLY MET'MAP TEAM :

Programming & Development : Alexandra Zaïnal
Concept & original design : Baudouin d'Aumeries
Assistance for programming : Marc-Olivier Méhu
Technical & hardware support : Manuel Goepfert

Contact : metmap@orbifly.com




SOURCES & CREDITS :

   NOAA       Earth
Advisory